Time;durP1;ratioP1;P1;durP2;ratioP2;P2;SDS_P1;SDS_P2;PMS_P1;PMS_P2;Temp;Humidity;BMP_temperature;BMP_pressure;BME280_temperature;BME280_humidity;BME280_pressure;Samples;Min_cycle;Max_cycle;Signal;HPM_P1;HPM_P2
2023/10/08 00:03:05;;;;;;;24.30;14.80;;;;;;;19.05;100.00;101424.25;20975315;28;19956;-72
2023/10/08 00:13:29;;;;;;;25.83;13.80;;;;;;;19.14;100.00;101411.69;20949355;28;20060;-72
2023/10/08 00:23:54;;;;;;;26.38;14.32;;;;;;;19.16;100.00;101399.19;20967636;28;20404;-72
2023/10/08 00:34:20;;;;;;;26.15;14.18;;;;;;;18.95;100.00;101384.19;20969082;28;20064;-72
2023/10/08 00:44:51;;;;;;;25.23;14.30;;;;;;;18.70;100.00;101389.75;20965308;28;20149;-72
2023/10/08 00:55:24;;;;;;;26.73;15.00;;;;;;;18.91;100.00;101387.78;20963786;28;20057;-72
2023/10/08 01:05:49;;;;;;;26.20;14.98;;;;;;;18.96;100.00;101372.59;20956130;28;20076;-72
2023/10/08 01:16:12;;;;;;;24.92;14.25;;;;;;;18.94;100.00;101361.00;20964664;28;20131;-72
2023/10/08 01:26:38;;;;;;;27.30;15.02;;;;;;;18.92;100.00;101371.72;20956323;28;20060;-72
2023/10/08 01:37:08;;;;;;;23.85;13.65;;;;;;;18.99;100.00;101370.78;20950903;28;20048;-72
2023/10/08 01:47:32;;;;;;;26.35;15.18;;;;;;;18.93;100.00;101364.59;20957718;28;20044;-73
2023/10/08 01:57:56;;;;;;;30.75;15.77;;;;;;;18.99;100.00;101362.75;20944412;28;20049;-72
2023/10/08 02:08:21;;;;;;;27.48;14.88;;;;;;;18.92;100.00;101361.03;20961153;28;20060;-72
2023/10/08 02:18:44;;;;;;;23.08;13.27;;;;;;;18.95;100.00;101365.47;20968464;28;20048;-72
2023/10/08 02:29:11;;;;;;;27.50;14.15;;;;;;;18.94;100.00;101366.38;20969651;28;20080;-72
2023/10/08 02:39:34;;;;;;;30.35;16.13;;;;;;;18.82;100.00;101372.72;20964100;28;20068;-72
2023/10/08 02:49:59;;;;;;;23.55;14.10;;;;;;;18.89;100.00;101361.06;20962215;28;20052;-72
2023/10/08 03:00:29;;;;;;;30.55;14.50;;;;;;;18.95;100.00;101352.09;20956069;28;20045;-72
2023/10/08 03:10:55;;;;;;;26.30;15.43;;;;;;;18.94;100.00;101361.00;20949563;28;20472;-72
2023/10/08 03:21:22;;;;;;;24.33;13.50;;;;;;;18.97;100.00;101361.88;20954788;28;20049;-72
2023/10/08 03:31:50;;;;;;;26.20;13.80;;;;;;;18.98;100.00;101362.75;20932309;28;20149;-72
2023/10/08 03:42:20;;;;;;;26.25;13.50;;;;;;;18.92;100.00;101373.50;20993232;28;20485;-72
2023/10/08 03:52:44;;;;;;;27.70;13.13;;;;;;;18.97;100.00;101369.88;20939132;28;20052;-72
2023/10/08 04:03:11;;;;;;;24.95;12.75;;;;;;;19.00;100.00;101371.66;20960150;28;20052;-72
2023/10/08 04:13:45;;;;;;;26.83;10.52;;;;;;;19.05;100.00;101370.72;20966748;28;20546;-71
2023/10/08 04:24:09;;;;;;;21.52;11.45;;;;;;;19.13;100.00;101369.75;20967023;28;20061;-72
2023/10/08 04:34:35;;;;;;;26.90;10.65;;;;;;;19.11;100.00;101370.66;20950223;28;20048;-72
2023/10/08 04:44:58;;;;;;;21.67;11.50;;;;;;;19.15;100.00;101378.66;20969448;28;20041;-72
2023/10/08 04:55:28;;;;;;;20.00;9.48;;;;;;;19.20;100.00;101387.53;20938990;28;20053;-72
2023/10/08 05:16:43;;;;;;;23.08;10.15;;;;;;;19.43;100.00;101414.94;20944597;28;20056;-72
2023/10/08 05:27:37;;;;;;;20.77;9.40;;;;;;;19.64;100.00;101417.44;20944530;28;20049;-72
2023/10/08 05:38:13;;;;;;;18.55;8.95;;;;;;;19.84;100.00;101428.81;20970105;28;20297;-72
2023/10/08 05:48:45;;;;;;;23.88;9.57;;;;;;;20.34;100.00;101438.06;21002334;28;20082;-72
2023/10/08 05:59:27;;;;;;;16.50;9.15;;;;;;;20.90;100.00;101436.31;20977398;28;20114;-72
2023/10/08 06:10:02;;;;;;;18.35;8.55;;;;;;;21.31;100.00;101451.78;20985173;28;20052;-72
2023/10/08 06:20:27;;;;;;;16.27;7.13;;;;;;;22.14;100.00;101450.19;20970792;28;20045;-72
2023/10/08 06:30:53;;;;;;;14.05;6.53;;;;;;;22.96;100.00;101437.56;20968170;28;20562;-72
2023/10/08 06:41:19;;;;;;;18.17;7.07;;;;;;;22.74;100.00;101444.38;20946740;28;20037;-72
2023/10/08 06:51:43;;;;;;;17.77;7.25;;;;;;;22.60;100.00;101435.72;20966593;28;20060;-71
2023/10/08 07:02:09;;;;;;;13.73;5.78;;;;;;;23.04;100.00;101432.84;20962761;28;20071;-72
2023/10/08 07:12:35;;;;;;;15.57;6.13;;;;;;;24.26;100.00;101443.03;20996857;28;20052;-72
2023/10/08 07:23:02;;;;;;;13.48;5.38;;;;;;;24.86;100.00;101428.56;20959407;28;20440;-71
2023/10/08 07:33:36;;;;;;;12.98;5.20;;;;;;;25.53;100.00;101442.53;21000998;28;20074;-72
2023/10/08 07:44:00;;;;;;;12.20;4.78;;;;;;;26.48;100.00;101429.94;21034153;28;20562;-72
2023/10/08 07:54:24;;;;;;;12.00;4.68;;;;;;;26.81;100.00;101428.59;20966907;28;20464;-73
2023/10/08 08:04:53;;;;;;;11.90;4.88;;;;;;;27.02;100.00;101409.72;20954392;28;20152;-72
2023/10/08 08:15:16;;;;;;;14.05;4.97;;;;;;;27.22;100.00;101416.06;20999192;28;20048;-72
2023/10/08 08:26:05;;;;;;;14.13;4.70;;;;;;;27.64;100.00;101413.28;21001425;28;20048;-72
2023/10/08 08:36:29;;;;;;;12.40;4.72;;;;;;;27.87;100.00;101415.00;20925620;28;20428;-72
2023/10/08 08:46:54;;;;;;;10.85;4.88;;;;;;;27.74;100.00;101402.94;20977567;28;20544;-73
2023/10/08 08:57:17;;;;;;;11.00;4.63;;;;;;;28.13;98.00;101409.22;20976834;28;20048;-73
2023/10/08 09:07:54;;;;;;;13.82;4.72;;;;;;;28.28;95.44;101404.94;21010918;28;20083;-72
2023/10/08 09:18:17;;;;;;;9.68;4.20;;;;;;;27.79;91.85;101398.16;20983916;28;20061;-72
2023/10/08 09:28:46;;;;;;;12.40;3.88;;;;;;;28.51;90.41;101388.41;20992412;28;20102;-72
2023/10/08 09:39:20;;;;;;;11.55;4.47;;;;;;;29.02;84.96;101380.47;20992833;28;20106;-72
2023/10/08 09:50:07;;;;;;;10.73;4.03;;;;;;;29.28;79.42;101380.88;20950117;28;20438;-73
2023/10/08 10:00:31;;;;;;;12.18;4.85;;;;;;;29.54;77.95;101360.47;21019601;28;20087;-72
2023/10/08 10:11:01;;;;;;;9.68;3.78;;;;;;;29.42;77.12;101361.13;21044724;28;20575;-72
2023/10/08 10:21:30;;;;;;;10.70;4.13;;;;;;;29.52;76.09;101356.97;20992482;28;20138;-73
2023/10/08 10:31:56;;;;;;;11.02;4.65;;;;;;;29.70;73.09;101333.31;20938740;28;20505;-72
2023/10/08 10:42:21;;;;;;;10.82;4.50;;;;;;;29.67;72.10;101334.34;21068626;28;20576;-73
2023/10/08 10:52:51;;;;;;;12.55;5.10;;;;;;;29.17;72.18;101333.44;20984888;28;20056;-73
2023/10/08 11:03:23;;;;;;;9.82;4.05;;;;;;;29.23;70.76;101327.66;20983223;28;20059;-73
2023/10/08 11:13:54;;;;;;;13.90;4.65;;;;;;;29.26;70.70;101316.63;20968521;28;20139;-72
2023/10/08 11:24:29;;;;;;;12.02;4.50;;;;;;;29.25;69.84;101313.03;20991705;28;20127;-72
2023/10/08 11:34:59;;;;;;;15.20;4.82;;;;;;;29.03;70.10;101309.69;20973292;28;20057;-73
2023/10/08 11:45:26;;;;;;;10.88;5.05;;;;;;;28.93;67.52;101294.81;20974861;28;20049;-72
2023/10/08 11:55:56;;;;;;;12.77;5.00;;;;;;;28.71;70.03;101286.84;20974617;28;20044;-71
2023/10/08 12:06:21;;;;;;;11.73;4.70;;;;;;;28.43;71.70;101278.34;20984261;28;20048;-72
2023/10/08 12:16:47;;;;;;;14.87;5.13;;;;;;;28.13;74.52;101268.03;20985362;28;20044;-71
2023/10/08 12:27:11;;;;;;;14.40;4.80;;;;;;;27.77;77.13;101265.25;20955499;28;20063;-71
2023/10/08 12:37:36;;;;;;;14.77;5.60;;;;;;;27.64;78.75;101255.03;20950363;28;20048;-70
2023/10/08 12:47:59;;;;;;;12.63;4.90;;;;;;;27.43;80.93;101254.19;20951778;28;20048;-72
2023/10/08 12:58:29;;;;;;;15.73;5.22;;;;;;;27.22;85.44;101258.78;20959129;28;20144;-72
2023/10/08 13:08:53;;;;;;;14.80;5.57;;;;;;;27.11;88.74;101273.78;20989070;28;20135;-73
2023/10/08 13:19:19;;;;;;;11.05;4.65;;;;;;;27.13;91.77;101275.44;20967080;28;20052;-72
2023/10/08 13:29:43;;;;;;;11.82;4.65;;;;;;;27.42;89.00;101271.41;20944516;28;20057;-72
2023/10/08 13:40:09;;;;;;;14.90;5.18;;;;;;;27.14;88.02;101258.22;20962529;28;20531;-72
2023/10/08 13:50:32;;;;;;;13.20;4.88;;;;;;;26.53;90.71;101250.03;21005186;28;20059;-71
2023/10/08 14:01:00;;;;;;;12.73;4.78;;;;;;;26.44;90.49;101252.28;21021773;28;20048;-71
2023/10/08 14:11:23;;;;;;;14.77;5.70;;;;;;;26.18;91.70;101256.94;20983213;28;20052;-70
2023/10/08 14:21:53;;;;;;;14.88;5.30;;;;;;;25.98;96.89;101262.25;20986366;28;20056;-71
2023/10/08 14:32:16;;;;;;;12.05;5.18;;;;;;;25.85;99.52;101260.09;20944192;28;20109;-72
2023/10/08 14:43:02;;;;;;;12.35;5.25;;;;;;;25.77;100.00;101272.09;20960517;28;20469;-71
2023/10/08 14:53:28;;;;;;;14.38;5.45;;;;;;;25.77;100.00;101273.94;21007516;27;20087;-72
2023/10/08 15:03:53;;;;;;;17.52;5.30;;;;;;;25.61;100.00;101281.75;20997895;28;20684;-72
2023/10/08 15:14:16;;;;;;;14.68;5.65;;;;;;;25.42;100.00;101277.94;20977482;28;20141;-72
2023/10/08 15:24:41;;;;;;;12.25;5.82;;;;;;;25.13;100.00;101286.25;20990648;28;20062;-71
2023/10/08 15:35:05;;;;;;;10.60;6.00;;;;;;;24.82;100.00;101295.38;21004712;28;20056;-71
2023/10/08 15:45:31;;;;;;;16.13;5.90;;;;;;;24.58;100.00;101299.81;20978861;28;20041;-70
2023/10/08 15:55:53;;;;;;;12.48;5.90;;;;;;;24.31;100.00;101308.84;20972365;28;20075;-71
2023/10/08 16:06:18;;;;;;;13.75;6.20;;;;;;;24.01;100.00;101313.38;21013383;28;20044;-70
2023/10/08 16:16:41;;;;;;;14.32;6.22;;;;;;;23.71;100.00;101308.88;20961280;28;20098;-70
2023/10/08 16:27:06;;;;;;;14.70;6.85;;;;;;;23.37;100.00;101296.34;20939605;28;20047;-70
2023/10/08 16:37:29;;;;;;;12.75;6.45;;;;;;;23.14;100.00;101314.09;20931197;28;20064;-70
2023/10/08 16:47:57;;;;;;;12.25;6.05;;;;;;;22.92;100.00;101313.78;20942950;28;20093;-71
2023/10/08 16:58:20;;;;;;;12.03;6.17;;;;;;;22.76;100.00;101318.72;20913906;28;20534;-70
2023/10/08 17:08:44;;;;;;;11.60;6.28;;;;;;;22.57;100.00;101323.63;20933976;28;20056;-70
2023/10/08 17:19:06;;;;;;;14.98;6.88;;;;;;;22.51;100.00;101330.97;20942692;28;20056;-70
2023/10/08 17:29:30;;;;;;;15.90;7.05;;;;;;;22.44;100.00;101332.06;20973126;28;20063;-70
2023/10/08 17:39:53;;;;;;;17.08;8.52;;;;;;;22.33;100.00;101350.22;20956079;28;20052;-70
2023/10/08 17:50:19;;;;;;;15.43;7.75;;;;;;;22.17;100.00;101353.31;20972747;28;20071;-70
2023/10/08 18:00:43;;;;;;;14.13;6.97;;;;;;;22.00;100.00;101363.53;20966316;28;20149;-70
2023/10/08 18:11:07;;;;;;;14.93;7.55;;;;;;;21.88;100.00;101359.28;20988996;28;20488;-70
2023/10/08 18:21:30;;;;;;;16.20;8.35;;;;;;;21.74;100.00;101363.16;20997216;28;20124;-70
2023/10/08 18:31:54;;;;;;;15.13;7.57;;;;;;;21.53;100.00;101359.09;20961428;28;20156;-70
2023/10/08 18:42:18;;;;;;;14.93;7.97;;;;;;;21.44;100.00;101365.56;20986933;28;20055;-70
2023/10/08 18:52:43;;;;;;;13.60;7.60;;;;;;;21.33;100.00;101370.22;20961870;28;20136;-70
2023/10/08 19:03:08;;;;;;;15.77;8.02;;;;;;;21.21;100.00;101369.56;20960211;28;20504;-69
2023/10/08 19:13:45;;;;;;;15.60;7.85;;;;;;;21.11;100.00;101370.63;20955213;28;20045;-70
2023/10/08 19:24:08;;;;;;;14.30;7.50;;;;;;;20.95;100.00;101373.59;21001812;28;20052;-70
2023/10/08 19:34:32;;;;;;;15.82;7.72;;;;;;;20.77;100.00;101378.38;20977303;28;20052;-70
2023/10/08 19:44:58;;;;;;;12.75;7.43;;;;;;;20.69;100.00;101381.19;21003844;28;20056;-70
2023/10/08 19:55:22;;;;;;;15.38;8.07;;;;;;;20.56;100.00;101380.50;20981116;28;20052;-70
2023/10/08 20:05:47;;;;;;;13.30;7.68;;;;;;;20.45;100.00;101381.56;20976387;28;20048;-70
2023/10/08 20:16:11;;;;;;;16.67;8.52;;;;;;;20.31;100.00;101379.06;20981917;28;20504;-70
2023/10/08 20:26:34;;;;;;;12.13;7.65;;;;;;;20.25;100.00;101380.03;20965030;28;20048;-71
2023/10/08 20:36:59;;;;;;;15.90;7.63;;;;;;;20.20;100.00;101372.97;20997673;28;20076;-70
2023/10/08 20:47:22;;;;;;;14.73;8.02;;;;;;;20.01;100.00;101371.47;21008438;28;20531;-70
2023/10/08 20:57:49;;;;;;;15.20;8.32;;;;;;;20.01;100.00;101366.09;20984382;28;20084;-71
2023/10/08 21:08:12;;;;;;;14.45;7.65;;;;;;;19.92;100.00;101366.19;21023966;28;20518;-71
2023/10/08 21:18:36;;;;;;;13.60;7.60;;;;;;;19.94;100.00;101369.75;20990847;28;20730;-70
2023/10/08 21:28:59;;;;;;;16.73;8.30;;;;;;;19.90;100.00;101367.09;20966152;28;20703;-70
2023/10/08 21:39:23;;;;;;;13.65;7.63;;;;;;;19.80;100.00;101369.94;20990857;28;20607;-70
2023/10/08 21:49:46;;;;;;;14.60;7.57;;;;;;;19.80;100.00;101361.91;20998310;28;20044;-70
2023/10/08 22:00:20;;;;;;;16.38;7.63;;;;;;;19.49;100.00;101370.28;20985630;28;20167;-70
2023/10/08 22:10:46;;;;;;;16.50;7.65;;;;;;;19.66;100.00;101377.25;20993657;28;20071;-71
2023/10/08 22:21:13;;;;;;;13.35;7.30;;;;;;;19.68;100.00;101375.44;20998392;28;20071;-70
2023/10/08 22:31:37;;;;;;;16.27;8.25;;;;;;;19.64;100.00;101369.22;20975369;28;20056;-71
2023/10/08 22:42:02;;;;;;;14.80;7.75;;;;;;;19.47;100.00;101363.19;20962939;28;20429;-71
2023/10/08 22:52:29;;;;;;;15.68;7.63;;;;;;;19.37;100.00;101372.16;20990051;28;20056;-71
2023/10/08 23:02:55;;;;;;;14.10;7.82;;;;;;;19.32;100.00;101368.66;20982791;28;20044;-70
2023/10/08 23:13:19;;;;;;;14.43;8.40;;;;;;;18.98;100.00;101371.66;20979690;28;20044;-70
2023/10/08 23:23:45;;;;;;;14.45;7.95;;;;;;;18.86;100.00;101368.22;20978572;28;20378;-71
2023/10/08 23:34:10;;;;;;;14.80;8.40;;;;;;;18.84;100.00;101362.88;20992732;28;20107;-70
2023/10/08 23:44:34;;;;;;;13.10;8.02;;;;;;;18.75;100.00;101356.72;20989981;28;20048;-70
2023/10/08 23:55:01;;;;;;;13.23;8.68;;;;;;;18.70;100.00;101360.34;20997108;28;20083;-71
